createdAt,value
2019-03-17T00:00:14.518Z,9.20
2019-03-17T00:02:42.731Z,9.10
2019-03-17T00:05:11.108Z,9.04
2019-03-17T00:07:39.324Z,8.97
2019-03-17T00:10:07.781Z,9.07
2019-03-17T00:12:35.994Z,8.98
2019-03-17T00:15:06.056Z,8.90
2019-03-17T00:17:34.353Z,8.97
2019-03-17T00:20:02.718Z,8.85
2019-03-17T00:22:30.942Z,8.99
2019-03-17T00:25:08.579Z,9.05
2019-03-17T00:27:29.208Z,9.00
2019-03-17T00:29:58.484Z,8.97
2019-03-17T00:32:26.671Z,8.95
2019-03-17T00:34:54.843Z,8.92
2019-03-17T00:37:23.398Z,8.88
2019-03-17T00:39:51.569Z,8.92
2019-03-17T00:42:19.934Z,9.03
2019-03-17T00:44:48.142Z,8.85
2019-03-17T00:47:16.421Z,9.05
2019-03-17T00:49:44.877Z,8.96
2019-03-17T00:52:13.190Z,8.81
2019-03-17T00:54:41.685Z,8.92
2019-03-17T00:57:10.650Z,9.01
2019-03-17T00:59:39.125Z,8.86
2019-03-17T01:02:07.398Z,8.77
2019-03-17T01:04:35.834Z,8.79
2019-03-17T01:07:03.943Z,8.80
2019-03-17T01:09:32.174Z,8.56
2019-03-17T01:12:00.614Z,8.78
2019-03-17T01:14:28.898Z,8.81
2019-03-17T01:16:57.162Z,8.79
2019-03-17T01:19:25.468Z,8.91
2019-03-17T01:21:53.814Z,8.68
2019-03-17T01:24:22.009Z,8.67
2019-03-17T01:26:50.554Z,8.76
2019-03-17T01:29:18.955Z,8.86
2019-03-17T01:31:47.703Z,8.91
2019-03-17T01:34:15.882Z,8.81
2019-03-17T01:36:44.195Z,8.58
2019-03-17T01:39:12.764Z,8.68
2019-03-17T01:41:40.915Z,8.74
2019-03-17T01:44:09.132Z,8.90
2019-03-17T01:46:37.295Z,8.95
2019-03-17T01:49:05.505Z,8.85
2019-03-17T01:51:33.739Z,8.80
2019-03-17T01:54:02.016Z,8.95
2019-03-17T01:56:30.290Z,8.97
2019-03-17T01:58:58.507Z,8.95
2019-03-17T02:01:26.727Z,9.11
2019-03-17T02:03:55.329Z,9.08
2019-03-17T02:06:23.562Z,8.83
2019-03-17T02:08:51.676Z,9.10
2019-03-17T02:11:20.087Z,9.10
2019-03-17T02:13:48.265Z,9.21
2019-03-17T02:16:16.660Z,9.08
2019-03-17T02:18:44.813Z,9.06
2019-03-17T02:21:13.110Z,8.84
2019-03-17T02:23:42.553Z,9.04
2019-03-17T02:26:10.856Z,9.07
2019-03-17T02:28:39.040Z,8.82
2019-03-17T02:31:07.288Z,9.16
2019-03-17T02:33:35.501Z,9.13
2019-03-17T02:36:03.690Z,9.05
2019-03-17T02:38:32.000Z,8.70
2019-03-17T02:41:00.149Z,8.86
2019-03-17T02:43:28.206Z,9.02
2019-03-17T02:45:56.436Z,8.87
2019-03-17T02:48:24.656Z,8.84
2019-03-17T02:50:52.837Z,8.65
2019-03-17T02:53:21.063Z,8.78
2019-03-17T02:55:49.244Z,8.84
2019-03-17T02:58:17.587Z,8.79
2019-03-17T03:00:45.802Z,8.88
2019-03-17T03:03:14.065Z,8.66
2019-03-17T03:05:54.073Z,8.80
2019-03-17T03:08:12.168Z,8.78
2019-03-17T03:10:40.329Z,8.76
2019-03-17T03:13:08.666Z,8.73
2019-03-17T03:15:36.929Z,8.80
2019-03-17T03:18:05.216Z,8.85
2019-03-17T03:20:33.446Z,8.71
2019-03-17T03:23:01.552Z,8.91
2019-03-17T03:25:29.848Z,8.80
2019-03-17T03:27:58.104Z,8.83
2019-03-17T03:30:26.270Z,8.88
2019-03-17T03:32:54.392Z,8.60
2019-03-17T03:35:22.581Z,8.81
2019-03-17T03:37:51.101Z,8.88
2019-03-17T03:40:19.321Z,8.59
2019-03-17T03:42:47.537Z,8.75
2019-03-17T03:45:15.960Z,8.66
2019-03-17T03:47:44.393Z,8.81
2019-03-17T03:50:12.764Z,8.94
2019-03-17T03:52:40.963Z,8.75
2019-03-17T03:55:09.236Z,8.70
2019-03-17T03:57:37.397Z,8.88
2019-03-17T04:00:06.352Z,8.76
2019-03-17T04:02:34.446Z,8.70
2019-03-17T04:05:02.797Z,8.84
2019-03-17T04:07:31.006Z,8.58
2019-03-17T04:09:59.134Z,8.88
2019-03-17T04:12:27.299Z,8.84
2019-03-17T04:14:55.443Z,8.85
2019-03-17T04:17:23.683Z,8.75
2019-03-17T04:19:51.853Z,8.74
2019-03-17T04:22:20.093Z,8.99
2019-03-17T04:24:48.263Z,8.99
2019-03-17T04:27:16.550Z,8.44
2019-03-17T04:29:44.944Z,8.42
2019-03-17T04:32:13.324Z,8.57
2019-03-17T04:34:41.483Z,8.51
2019-03-17T04:37:09.645Z,8.44
2019-03-17T04:39:37.759Z,8.45
2019-03-17T04:42:06.026Z,8.50
2019-03-17T04:44:34.293Z,8.67
2019-03-17T04:47:02.494Z,8.64
2019-03-17T04:49:30.703Z,8.44
2019-03-17T04:51:58.963Z,8.73
2019-03-17T04:54:27.477Z,8.39
2019-03-17T04:56:55.662Z,8.39
2019-03-17T04:59:23.802Z,8.55
2019-03-17T05:01:52.049Z,8.41
2019-03-17T05:04:20.209Z,8.47
2019-03-17T05:06:53.027Z,8.63
2019-03-17T05:09:18.284Z,8.69
2019-03-17T05:11:46.647Z,8.65
2019-03-17T05:14:14.798Z,8.76
2019-03-17T05:16:42.930Z,8.57
2019-03-17T05:19:11.342Z,8.72
2019-03-17T05:21:39.587Z,8.76
2019-03-17T05:24:07.858Z,8.76
2019-03-17T05:26:36.204Z,8.86
2019-03-17T05:29:04.419Z,8.67
2019-03-17T05:31:32.506Z,8.77
2019-03-17T05:34:00.679Z,8.83
2019-03-17T05:36:28.888Z,8.66
2019-03-17T05:38:57.167Z,8.70
2019-03-17T05:41:25.447Z,8.57
2019-03-17T05:43:53.720Z,8.49
2019-03-17T05:46:21.911Z,8.81
2019-03-17T05:48:50.540Z,8.79
2019-03-17T05:51:18.703Z,8.92
2019-03-17T05:53:46.945Z,8.85
2019-03-17T05:56:15.187Z,8.87
2019-03-17T05:58:43.430Z,8.80
2019-03-17T06:01:11.649Z,8.75
2019-03-17T06:03:39.890Z,8.99
2019-03-17T06:06:08.322Z,9.08
2019-03-17T06:08:36.689Z,8.94
2019-03-17T06:11:05.012Z,8.89
2019-03-17T06:13:33.156Z,8.96
2019-03-17T06:16:01.350Z,8.99
2019-03-17T06:18:29.568Z,8.92
2019-03-17T06:20:57.664Z,8.98
2019-03-17T06:23:25.784Z,8.95
2019-03-17T06:25:53.904Z,8.90
2019-03-17T06:28:22.179Z,8.89
2019-03-17T06:30:50.412Z,9.03
2019-03-17T06:33:18.598Z,9.01
2019-03-17T06:35:46.765Z,8.87
2019-03-17T06:38:14.988Z,8.95
2019-03-17T06:40:43.117Z,8.91
2019-03-17T06:43:11.609Z,8.77
2019-03-17T06:45:39.963Z,8.73
2019-03-17T06:48:08.132Z,8.71
2019-03-17T06:50:36.340Z,8.77
2019-03-17T06:53:04.529Z,8.77
2019-03-17T06:55:32.761Z,8.85
2019-03-17T06:58:01.317Z,8.72
2019-03-17T07:00:29.496Z,8.72
2019-03-17T07:02:57.713Z,8.79
2019-03-17T07:05:25.913Z,8.77
2019-03-17T07:07:54.106Z,8.78
2019-03-17T07:10:22.291Z,8.76
2019-03-17T07:12:50.521Z,8.75
2019-03-17T07:15:18.803Z,8.66
2019-03-17T07:17:47.101Z,8.72
2019-03-17T07:20:15.377Z,8.69
2019-03-17T07:22:43.782Z,8.64
2019-03-17T07:25:11.968Z,8.58
2019-03-17T07:27:40.208Z,8.56
2019-03-17T07:30:09.718Z,8.45
2019-03-17T07:32:37.896Z,8.44
2019-03-17T07:35:06.877Z,8.38
2019-03-17T07:37:35.079Z,8.27
2019-03-17T07:40:03.349Z,8.36
2019-03-17T07:42:32.651Z,8.35
2019-03-17T07:45:00.996Z,8.28
2019-03-17T07:47:29.242Z,8.14
2019-03-17T07:49:57.539Z,8.16
2019-03-17T07:52:25.649Z,8.20
2019-03-17T07:54:53.894Z,8.27
2019-03-17T07:57:22.420Z,8.30
2019-03-17T07:59:50.554Z,8.20
2019-03-17T08:02:18.740Z,8.22
2019-03-17T08:04:46.895Z,8.20
2019-03-17T08:07:15.098Z,8.25
2019-03-17T08:09:43.334Z,8.22
2019-03-17T08:12:11.529Z,8.17
2019-03-17T08:14:39.877Z,8.19
2019-03-17T08:17:08.143Z,8.24
2019-03-17T08:19:36.449Z,8.21
2019-03-17T08:22:04.628Z,8.23
2019-03-17T08:24:32.827Z,8.28
2019-03-17T08:27:01.045Z,8.28
2019-03-17T08:29:29.247Z,8.29
2019-03-17T08:31:57.672Z,8.29
2019-03-17T08:34:25.905Z,8.26
2019-03-17T08:36:54.176Z,8.34
2019-03-17T08:39:22.463Z,8.19
2019-03-17T08:41:50.749Z,8.23
2019-03-17T08:44:19.046Z,8.17
2019-03-17T08:46:47.342Z,8.17
2019-03-17T08:49:15.680Z,8.10
2019-03-17T08:51:44.000Z,8.16
2019-03-17T08:54:12.476Z,8.08
2019-03-17T08:56:40.772Z,8.03
2019-03-17T08:59:08.922Z,7.98
2019-03-17T09:01:37.138Z,8.09
2019-03-17T09:04:05.344Z,7.92
2019-03-17T09:06:33.835Z,7.98
2019-03-17T09:09:02.232Z,7.85
2019-03-17T09:11:30.515Z,7.86
2019-03-17T09:13:58.846Z,8.04
2019-03-17T09:16:27.388Z,8.03
2019-03-17T09:18:55.742Z,7.78
2019-03-17T09:21:24.161Z,7.62
2019-03-17T09:23:52.452Z,6.37
2019-03-17T09:26:20.988Z,6.08
2019-03-17T09:28:49.185Z,6.55
2019-03-17T09:31:17.436Z,6.83
2019-03-17T09:33:45.837Z,6.79
2019-03-17T09:36:14.117Z,6.27
2019-03-17T09:38:47.135Z,6.64
2019-03-17T09:41:12.561Z,6.53
2019-03-17T09:43:42.095Z,6.89
2019-03-17T09:46:10.390Z,7.28
2019-03-17T09:48:38.699Z,7.06
2019-03-17T09:51:07.193Z,7.02
2019-03-17T09:53:35.356Z,7.21
2019-03-17T09:56:03.629Z,7.05
2019-03-17T09:58:32.010Z,6.92
2019-03-17T10:01:00.749Z,7.03
2019-03-17T10:03:29.573Z,7.25
2019-03-17T10:05:57.833Z,7.47
2019-03-17T10:08:26.434Z,7.39
2019-03-17T10:10:54.898Z,7.15
2019-03-17T10:13:23.588Z,7.26
2019-03-17T10:15:51.784Z,7.21
2019-03-17T10:18:19.983Z,7.14
2019-03-17T10:20:48.340Z,7.32
2019-03-17T10:23:16.731Z,7.15
2019-03-17T10:25:44.982Z,7.28
2019-03-17T10:28:13.479Z,7.37
2019-03-17T10:30:41.727Z,8.01
2019-03-17T10:33:10.070Z,7.45
2019-03-17T10:35:38.437Z,7.64
2019-03-17T10:38:06.935Z,7.36
2019-03-17T10:40:35.239Z,7.39
2019-03-17T10:43:03.580Z,7.58
2019-03-17T10:45:31.887Z,7.51
2019-03-17T10:48:00.103Z,6.24
2019-03-17T10:50:28.535Z,7.80
2019-03-17T10:52:57.320Z,8.13
2019-03-17T10:55:27.295Z,8.21
2019-03-17T10:57:55.565Z,8.24
2019-03-17T11:00:24.497Z,8.35
2019-03-17T11:02:52.761Z,8.16
2019-03-17T11:05:21.425Z,8.08
2019-03-17T11:07:49.768Z,8.53
2019-03-17T11:10:18.197Z,8.59
2019-03-17T11:12:46.580Z,8.07
2019-03-17T11:15:15.049Z,8.36
2019-03-17T11:17:43.496Z,8.72
2019-03-17T11:20:11.679Z,8.32
2019-03-17T11:22:40.182Z,8.27
2019-03-17T11:25:09.273Z,8.81
2019-03-17T11:27:37.783Z,8.36
2019-03-17T11:30:07.036Z,8.59
2019-03-17T11:32:35.539Z,9.18
2019-03-17T11:35:04.548Z,8.47
2019-03-17T11:37:33.014Z,8.34
2019-03-17T11:40:01.435Z,8.40
2019-03-17T11:42:30.006Z,8.76
2019-03-17T11:44:58.398Z,8.35
2019-03-17T11:47:26.846Z,8.10
2019-03-17T11:49:55.360Z,8.61
2019-03-17T11:52:23.865Z,8.83
2019-03-17T11:54:52.143Z,8.51
2019-03-17T11:57:20.416Z,8.51
2019-03-17T11:59:48.949Z,8.22
2019-03-17T12:02:26.034Z,8.01
2019-03-17T12:04:47.164Z,8.45
2019-03-17T12:07:16.426Z,8.52
2019-03-17T12:09:50.359Z,8.48
2019-03-17T12:12:15.674Z,8.23
2019-03-17T12:14:44.258Z,8.09
2019-03-17T12:17:12.806Z,7.44
2019-03-17T12:19:41.209Z,7.35
2019-03-17T12:22:09.724Z,7.71
2019-03-17T12:24:37.958Z,7.41
2019-03-17T12:27:06.507Z,7.17
2019-03-17T12:29:34.846Z,7.38
2019-03-17T12:32:03.315Z,7.20
2019-03-17T12:34:31.733Z,6.97
2019-03-17T12:37:00.560Z,7.36
2019-03-17T12:39:29.338Z,7.77
2019-03-17T12:41:58.003Z,7.21
2019-03-17T12:44:26.958Z,7.18
2019-03-17T12:46:55.531Z,7.13
2019-03-17T12:49:24.344Z,7.28
2019-03-17T12:51:53.269Z,7.17
2019-03-17T12:54:21.719Z,7.83
2019-03-17T12:56:50.281Z,7.86
2019-03-17T12:59:19.383Z,8.04
2019-03-17T13:01:47.886Z,7.98
2019-03-17T13:04:16.518Z,7.71
2019-03-17T13:06:45.270Z,7.48
2019-03-17T13:09:14.999Z,7.67
2019-03-17T13:11:44.159Z,8.11
2019-03-17T13:14:12.571Z,7.94
2019-03-17T13:16:41.195Z,7.83
2019-03-17T13:19:09.786Z,8.09
2019-03-17T13:21:38.396Z,8.09
2019-03-17T13:24:07.187Z,8.04
2019-03-17T13:26:35.814Z,9.06
2019-03-17T13:29:04.401Z,8.53
2019-03-17T13:31:33.362Z,7.96
2019-03-17T13:34:02.099Z,8.06
2019-03-17T13:36:30.560Z,8.14
2019-03-17T13:39:00.040Z,8.16
2019-03-17T13:41:28.471Z,8.19
2019-03-17T13:43:57.323Z,9.17
2019-03-17T13:46:25.936Z,8.78
2019-03-17T13:48:54.523Z,8.52
2019-03-17T13:51:23.122Z,8.68
2019-03-17T13:53:51.790Z,7.48
2019-03-17T13:56:20.188Z,7.87
2019-03-17T13:58:48.516Z,7.47
2019-03-17T14:01:17.241Z,6.68
2019-03-17T14:03:46.188Z,7.28
2019-03-17T14:06:14.491Z,7.44
2019-03-17T14:08:42.866Z,7.95
2019-03-17T14:11:11.346Z,7.53
2019-03-17T14:13:39.857Z,8.48
2019-03-17T14:16:08.543Z,9.03
2019-03-17T14:18:37.647Z,9.27
2019-03-17T14:21:06.577Z,9.03
2019-03-17T14:23:35.176Z,9.48
2019-03-17T14:26:04.364Z,8.76
2019-03-17T14:28:32.805Z,9.15
2019-03-17T14:31:01.469Z,8.50
2019-03-17T14:33:31.517Z,8.69
2019-03-17T14:36:00.178Z,8.45
2019-03-17T14:38:28.690Z,8.10
2019-03-17T14:40:57.545Z,7.86
2019-03-17T14:43:26.221Z,8.69
2019-03-17T14:45:54.787Z,9.52
2019-03-17T14:48:23.195Z,8.78
2019-03-17T14:50:51.972Z,8.71
2019-03-17T14:53:20.501Z,8.03
2019-03-17T14:55:48.947Z,6.66
2019-03-17T14:58:17.721Z,5.90
2019-03-17T15:00:46.494Z,6.70
2019-03-17T15:03:15.190Z,5.05
2019-03-17T15:05:44.346Z,4.59
2019-03-17T15:08:13.108Z,3.94
2019-03-17T15:10:42.540Z,4.97
2019-03-17T15:13:11.442Z,3.94
2019-03-17T15:15:40.182Z,4.48
2019-03-17T15:18:09.254Z,4.46
2019-03-17T15:20:38.400Z,6.00
2019-03-17T15:23:07.257Z,6.35
2019-03-17T15:25:36.144Z,6.10
2019-03-17T15:28:05.541Z,7.07
2019-03-17T15:30:36.340Z,6.79
2019-03-17T15:33:05.156Z,7.21
2019-03-17T15:35:34.048Z,7.33
2019-03-17T15:38:02.758Z,6.95
2019-03-17T15:40:31.436Z,6.70
2019-03-17T15:42:59.986Z,6.68
2019-03-17T15:45:28.823Z,6.70
2019-03-17T15:47:57.189Z,6.50
2019-03-17T15:50:25.819Z,8.09
2019-03-17T15:52:54.943Z,7.03
2019-03-17T15:55:23.782Z,7.40
2019-03-17T15:57:52.411Z,8.50
2019-03-17T16:00:25.286Z,7.28
2019-03-17T16:02:52.307Z,7.76
2019-03-17T16:05:21.197Z,7.39
2019-03-17T16:07:50.819Z,8.08
2019-03-17T16:10:20.458Z,7.19
2019-03-17T16:12:49.997Z,6.88
2019-03-17T16:15:18.991Z,7.23
2019-03-17T16:17:48.481Z,7.32
2019-03-17T16:20:18.513Z,8.59
2019-03-17T16:22:47.135Z,8.32
2019-03-17T16:25:17.002Z,7.58
2019-03-17T16:27:45.907Z,8.00
2019-03-17T16:30:17.170Z,7.53
2019-03-17T16:32:47.128Z,6.51
2019-03-17T16:35:16.612Z,7.04
2019-03-17T16:37:45.524Z,7.57
2019-03-17T16:40:17.402Z,6.94
2019-03-17T16:43:05.428Z,7.75
2019-03-17T16:45:34.208Z,8.27
2019-03-17T16:48:02.798Z,7.77
2019-03-17T16:50:31.058Z,7.76
2019-03-17T16:53:00.251Z,7.67
2019-03-17T16:55:28.910Z,6.43
2019-03-17T16:57:57.813Z,7.05
2019-03-17T17:00:27.024Z,6.89
2019-03-17T17:02:55.757Z,7.39
2019-03-17T17:05:26.198Z,7.48
2019-03-17T17:07:54.523Z,7.38
2019-03-17T17:10:24.101Z,6.92
2019-03-17T17:12:54.070Z,6.51
2019-03-17T17:15:24.707Z,6.20
2019-03-17T17:17:52.869Z,6.13
2019-03-17T17:20:26.393Z,5.84
2019-03-17T17:22:56.130Z,5.69
2019-03-17T17:25:25.791Z,6.07
2019-03-17T17:27:55.207Z,6.20
2019-03-17T17:30:24.357Z,5.95
2019-03-17T17:32:53.575Z,5.84
2019-03-17T17:35:24.693Z,5.92
2019-03-17T17:37:54.215Z,5.75
2019-03-17T17:40:24.310Z,5.65
2019-03-17T17:42:57.059Z,5.70
2019-03-17T17:45:27.083Z,5.95
2019-03-17T17:47:57.159Z,5.55
2019-03-17T17:50:27.592Z,5.49
2019-03-17T17:52:57.811Z,5.14
2019-03-17T17:55:26.838Z,3.79
2019-03-17T17:57:56.527Z,3.50
2019-03-17T18:00:28.008Z,4.30
2019-03-17T18:02:58.749Z,4.29
2019-03-17T18:05:29.076Z,3.68
2019-03-17T18:08:01.674Z,3.88
2019-03-17T18:10:31.606Z,3.55
2019-03-17T18:13:07.889Z,3.57
2019-03-17T18:16:01.985Z,3.04
2019-03-17T18:18:32.000Z,3.50
2019-03-17T18:21:02.227Z,3.67
2019-03-17T18:23:31.205Z,4.63
2019-03-17T18:26:01.396Z,4.41
2019-03-17T18:28:31.414Z,4.60
2019-03-17T18:31:03.489Z,4.34
2019-03-17T18:33:33.566Z,4.25
2019-03-17T18:36:04.117Z,4.28
2019-03-17T18:38:33.150Z,4.25
2019-03-17T18:41:03.635Z,4.54
2019-03-17T18:43:33.454Z,4.44
2019-03-17T18:46:07.249Z,4.33
2019-03-17T18:48:36.845Z,3.68
2019-03-17T18:51:06.723Z,3.48
2019-03-17T18:53:35.658Z,3.52
2019-03-17T18:56:05.661Z,3.92
2019-03-17T18:58:37.249Z,3.61
2019-03-17T19:01:07.106Z,3.72
2019-03-17T19:03:36.505Z,3.79
2019-03-17T19:06:06.446Z,3.80
2019-03-17T19:08:38.528Z,3.88
2019-03-17T19:11:08.468Z,4.02
2019-03-17T19:13:39.499Z,4.04
2019-03-17T19:16:09.515Z,4.13
2019-03-17T19:18:39.175Z,4.07
2019-03-17T19:21:09.237Z,4.23
2019-03-17T19:23:38.976Z,4.30
2019-03-17T19:26:09.687Z,4.27
2019-03-17T19:28:39.926Z,4.28
2019-03-17T19:31:09.942Z,4.25
2019-03-17T19:33:40.226Z,4.23
2019-03-17T19:36:23.690Z,4.22
2019-03-17T19:38:52.983Z,4.22
2019-03-17T19:41:23.103Z,4.20
2019-03-17T19:43:54.601Z,4.15
2019-03-17T19:46:24.989Z,4.13
2019-03-17T19:49:14.931Z,4.15
2019-03-17T19:51:46.401Z,4.09
2019-03-17T19:54:15.807Z,4.02
2019-03-17T19:56:44.727Z,4.02
2019-03-17T19:59:14.362Z,4.02
2019-03-17T20:01:44.004Z,3.91
2019-03-17T20:04:13.706Z,3.91
2019-03-17T20:06:43.075Z,3.87
2019-03-17T20:09:13.893Z,3.98
2019-03-17T20:11:53.003Z,3.87
2019-03-17T20:14:21.850Z,3.98
2019-03-17T20:16:51.168Z,3.93
2019-03-17T20:19:20.946Z,3.97
2019-03-17T20:21:50.136Z,3.92
2019-03-17T20:24:19.271Z,3.76
2019-03-17T20:26:48.117Z,3.78
2019-03-17T20:29:17.356Z,3.87
2019-03-17T20:31:47.319Z,3.94
2019-03-17T20:34:16.952Z,3.91
2019-03-17T20:36:46.880Z,3.98
2019-03-17T20:39:16.239Z,3.90
2019-03-17T20:41:45.954Z,3.80
2019-03-17T20:44:15.788Z,3.82
2019-03-17T20:46:45.883Z,3.88
2019-03-17T20:49:15.421Z,3.76
2019-03-17T20:51:44.637Z,3.83
2019-03-17T20:54:14.087Z,3.68
2019-03-17T20:56:44.354Z,3.48
2019-03-17T20:59:13.459Z,3.52
2019-03-17T21:01:42.880Z,3.47
2019-03-17T21:04:12.013Z,3.54
2019-03-17T21:06:40.289Z,3.57
2019-03-17T21:09:09.517Z,3.53
2019-03-17T21:11:38.145Z,3.53
2019-03-17T21:14:06.599Z,3.48
2019-03-17T21:16:35.444Z,3.37
2019-03-17T21:19:07.114Z,3.26
2019-03-17T21:21:35.714Z,3.28
2019-03-17T21:24:04.552Z,3.24
2019-03-17T21:26:33.947Z,3.30
2019-03-17T21:29:02.687Z,3.22
2019-03-17T21:31:31.884Z,3.19
2019-03-17T21:34:00.438Z,3.19
2019-03-17T21:36:48.132Z,3.09
2019-03-17T21:39:17.994Z,3.16
2019-03-17T21:41:46.908Z,3.18
2019-03-17T21:44:15.454Z,3.29
2019-03-17T21:46:44.026Z,3.18
2019-03-17T21:49:12.403Z,3.26
2019-03-17T21:51:40.847Z,3.30
2019-03-17T21:54:09.500Z,3.30
2019-03-17T21:56:37.876Z,3.28
2019-03-17T21:59:06.450Z,3.41
2019-03-17T22:01:35.129Z,3.32
2019-03-17T22:04:03.543Z,3.32
2019-03-17T22:06:32.491Z,3.46
2019-03-17T22:09:01.233Z,3.39
2019-03-17T22:11:29.685Z,3.42
2019-03-17T22:13:58.191Z,3.29
2019-03-17T22:16:26.547Z,3.25
2019-03-17T22:18:56.623Z,3.26
2019-03-17T22:21:25.024Z,3.29
2019-03-17T22:23:53.454Z,3.19
2019-03-17T22:26:22.311Z,3.22
2019-03-17T22:28:50.568Z,3.22
2019-03-17T22:31:19.192Z,3.13
2019-03-17T22:33:47.630Z,3.11
2019-03-17T22:36:16.058Z,3.02
2019-03-17T22:38:44.380Z,2.96
2019-03-17T22:41:12.619Z,2.89
2019-03-17T22:43:42.787Z,2.87
2019-03-17T22:46:11.215Z,2.85
2019-03-17T22:48:39.422Z,2.85
2019-03-17T22:51:07.765Z,2.72
2019-03-17T22:53:36.258Z,2.66
2019-03-17T22:56:04.647Z,2.69
2019-03-17T22:58:32.961Z,2.70
2019-03-17T23:01:01.708Z,2.65
2019-03-17T23:03:29.942Z,2.60
2019-03-17T23:05:58.219Z,2.68
2019-03-17T23:08:26.415Z,2.68
2019-03-17T23:10:54.794Z,2.61
2019-03-17T23:13:23.039Z,2.60
2019-03-17T23:15:51.268Z,2.55
2019-03-17T23:18:19.602Z,2.64
2019-03-17T23:20:47.873Z,2.57
2019-03-17T23:23:16.085Z,2.61
2019-03-17T23:25:44.309Z,2.65
2019-03-17T23:28:12.536Z,2.62
2019-03-17T23:30:40.704Z,2.60
2019-03-17T23:33:08.963Z,2.63
2019-03-17T23:35:37.337Z,2.53
2019-03-17T23:38:05.852Z,2.64
2019-03-17T23:40:34.013Z,2.56
2019-03-17T23:43:02.192Z,2.55
2019-03-17T23:45:30.478Z,2.52
2019-03-17T23:47:58.669Z,2.51
2019-03-17T23:50:26.982Z,2.53
2019-03-17T23:52:55.257Z,2.56
2019-03-17T23:55:23.522Z,2.48
2019-03-17T23:57:51.888Z,2.50
